createdAt,value
2022-08-23T00:02:23.912Z,553.90099
2022-08-23T00:07:25.806Z,579.05155
2022-08-23T00:12:32.015Z,514.37037
2022-08-23T00:17:34.916Z,553.90099
2022-08-23T00:22:37.743Z,547.92157
2022-08-23T00:27:39.421Z,494
2022-08-23T00:32:41.387Z,479.65217
2022-08-23T00:37:42.938Z,444.81301
2022-08-23T00:42:47.920Z,466.0339
2022-08-23T00:47:49.455Z,444.81301
2022-08-23T00:52:52.548Z,440.77419
2022-08-23T00:57:53.979Z,414.22901
2022-08-23T01:02:55.477Z,448.91803
2022-08-23T01:07:57.376Z,479.65217
2022-08-23T01:12:59.235Z,489.13274
2022-08-23T01:18:00.885Z,514.37037
2022-08-23T01:23:02.696Z,489.13274
2022-08-23T01:28:04.156Z,479.65217
2022-08-23T01:33:05.737Z,572.57143
2022-08-23T01:38:07.366Z,566.22222
2022-08-23T01:43:08.845Z,547.92157
2022-08-23T01:48:10.347Z,566.22222
2022-08-23T01:53:12.271Z,547.92157
2022-08-23T01:58:13.979Z,498.95495
2022-08-23T02:03:15.430Z,489.13274
2022-08-23T02:08:16.993Z,536.30769
2022-08-23T02:13:18.827Z,560
2022-08-23T02:18:20.605Z,560
2022-08-23T02:23:22.554Z,489.13274
2022-08-23T02:28:24.091Z,470.49573
2022-08-23T02:33:25.888Z,484.35088
2022-08-23T02:38:27.844Z,475.03448
2022-08-23T02:43:30.215Z,470.49573
2022-08-23T02:48:32.005Z,436.8
2022-08-23T02:53:37.340Z,390.37681
2022-08-23T02:58:39.227Z,384
2022-08-23T03:03:44.648Z,407.15789
2022-08-23T03:08:46.855Z,377.80282
2022-08-23T03:13:48.732Z,410.66667
2022-08-23T03:18:50.498Z,384
2022-08-23T03:23:52.681Z,363.04762
2022-08-23T03:28:54.126Z,368.82759
2022-08-23T03:33:58.797Z,324.24691
2022-08-23T03:39:00.951Z,346.61438
2022-08-23T03:44:02.458Z,357.42282
2022-08-23T03:49:04.120Z,349.26316
2022-08-23T03:54:06.278Z,294
2022-08-23T03:59:08.154Z,292.0226
2022-08-23T04:04:10.130Z,317.33333
2022-08-23T04:09:12.034Z,317.33333
2022-08-23T04:14:13.862Z,326.6087
2022-08-23T04:19:15.736Z,324.24691
2022-08-23T04:24:17.736Z,256.69036
2022-08-23T04:29:20.782Z,238.73684
2022-08-23T04:34:36.058Z,258.28571
2022-08-23T04:39:37.947Z,229.18519
2022-08-23T04:44:45.010Z,230.51163
2022-08-23T04:49:46.671Z,225.27854
2022-08-23T04:54:49.077Z,208.37768
2022-08-23T04:59:50.730Z,226.56881
2022-08-23T05:04:52.435Z,194.4065
2022-08-23T05:09:54.343Z,241.58454
2022-08-23T05:14:56.060Z,248.9505
2022-08-23T05:19:57.593Z,229.18519
2022-08-23T05:24:59.635Z,248.9505
2022-08-23T05:30:01.166Z,300.06936
2022-08-23T05:35:02.841Z,269.92593
2022-08-23T05:40:04.630Z,300.06936
2022-08-23T05:45:06.292Z,324.24691
2022-08-23T05:50:07.714Z,308.49704
2022-08-23T05:55:10.258Z,282.46154
2022-08-23T06:00:11.910Z,371.77778
2022-08-23T06:05:14.224Z,326.6087
2022-08-23T06:10:16.645Z,357.42282
2022-08-23T06:15:18.195Z,377.80282
2022-08-23T06:20:19.851Z,349.26316
2022-08-23T06:25:21.939Z,326.6087
2022-08-23T06:30:23.602Z,363.04762
2022-08-23T06:35:37.977Z,387.16547
2022-08-23T06:40:42.144Z,368.82759
2022-08-23T06:45:44.017Z,368.82759
2022-08-23T06:50:54.153Z,461.64706
2022-08-23T06:55:56.088Z,384
2022-08-23T07:00:57.935Z,400.2963
2022-08-23T07:05:59.906Z,504
2022-08-23T07:11:01.662Z,414.22901
2022-08-23T07:16:03.559Z,440.77419
2022-08-23T07:21:05.386Z,425.25
2022-08-23T07:26:07.391Z,425.25
2022-08-23T07:31:14.536Z,374.76923
2022-08-23T07:36:16.750Z,421.51938
2022-08-23T07:41:18.262Z,390.37681
2022-08-23T07:46:19.885Z,414.22901
2022-08-23T07:51:21.806Z,393.63504
2022-08-23T07:56:23.645Z,421.51938
2022-08-23T08:01:25.269Z,407.15789
2022-08-23T08:06:26.802Z,448.91803
2022-08-23T08:11:32.347Z,432.88889
2022-08-23T08:16:36.463Z,387.16547
2022-08-23T08:21:39.619Z,403.70149
2022-08-23T08:26:44.292Z,421.51938
2022-08-23T08:31:45.974Z,453.09091
2022-08-23T08:36:47.701Z,414.22901
2022-08-23T08:41:51.469Z,498.95495
2022-08-23T08:47:06.173Z,461.64706
2022-08-23T08:52:08.042Z,525.13208
2022-08-23T08:57:10.204Z,530.66667
2022-08-23T09:02:32.108Z,547.92157
2022-08-23T09:07:35.215Z,572.57143
2022-08-23T09:12:36.753Z,620.92308
2022-08-23T09:17:38.590Z,754.52632
2022-08-23T09:22:40.338Z,811.60563
2022-08-23T09:27:42.585Z,799.55556
2022-08-23T09:32:44.584Z,891.69231
2022-08-23T09:37:46.259Z,1106.26415
2022-08-23T09:42:48.066Z,1151.84314
2022-08-23T09:47:49.719Z,1376.55814
2022-08-23T09:52:51.487Z,1254.6383
2022-08-23T09:57:53.835Z,1201.14286
2022-08-23T10:02:55.599Z,1254.6383
2022-08-23T10:07:57.377Z,1608.86486
2022-08-23T10:12:59.596Z,1446.43902
2022-08-23T10:18:02.296Z,1376.55814
2022-08-23T10:23:04.396Z,1997.33333
2022-08-23T10:28:06.573Z,2877.33333
2022-08-23T10:33:08.463Z,1997.33333
2022-08-23T10:38:10.407Z,2313.23077
2022-08-23T10:43:12.322Z,2744
2022-08-23T10:48:14.085Z,2510.66667
2022-08-23T10:53:15.832Z,1931.09677
2022-08-23T10:58:17.971Z,2144
2022-08-23T11:03:19.470Z,2144
2022-08-23T11:08:20.940Z,2877.33333
2022-08-23T11:13:22.707Z,3366.22222
2022-08-23T11:18:24.184Z,3024
2022-08-23T11:23:25.663Z,3186.10526
2022-08-23T11:28:30.486Z,3366.22222
2022-08-23T11:33:32.113Z,3366.22222
2022-08-23T11:38:33.584Z,4344
2022-08-23T11:43:35.318Z,4682.46154
2022-08-23T11:48:36.960Z,4682.46154
2022-08-23T11:53:45.125Z,5077.33333
2022-08-23T11:58:47.648Z,5544
2022-08-23T12:03:50.684Z,6104
2022-08-23T12:08:52.508Z,6104
2022-08-23T12:13:54.309Z,6788.44444
2022-08-23T12:18:55.957Z,5544
2022-08-23T12:24:01.230Z,4682.46154
2022-08-23T12:29:04.263Z,7644
2022-08-23T12:34:05.838Z,5077.33333
2022-08-23T12:39:07.737Z,12264
2022-08-23T12:44:09.297Z,6788.44444
2022-08-23T12:49:13.485Z,6788.44444
2022-08-23T12:54:16.433Z,6788.44444
2022-08-23T12:59:18.825Z,8744
2022-08-23T13:04:20.325Z,7644
2022-08-23T13:09:21.847Z,7644
2022-08-23T13:14:23.494Z,6104
2022-08-23T13:19:26.331Z,7644
2022-08-23T13:24:29.999Z,6104
2022-08-23T13:29:41.988Z,5544
2022-08-23T13:34:48.807Z,4344
2022-08-23T13:39:51.784Z,8744
2022-08-23T13:44:53.825Z,6104
2022-08-23T13:49:55.562Z,7644
2022-08-23T13:55:00.640Z,5544
2022-08-23T14:00:03.490Z,4050.66667
2022-08-23T14:05:05.471Z,8744
2022-08-23T14:10:07.328Z,8744
2022-08-23T14:15:08.844Z,7644
2022-08-23T14:25:45.823Z,10210.66667
2022-08-23T14:30:47.749Z,5544
2022-08-23T14:35:49.292Z,8744
2022-08-23T14:40:50.947Z,8744
2022-08-23T14:45:52.717Z,6104
2022-08-23T14:50:54.524Z,6788.44444
2022-08-23T14:56:18.805Z,8744
2022-08-23T15:01:22.832Z,6788.44444
2022-08-23T15:06:24.561Z,2877.33333
2022-08-23T15:16:58.179Z,5077.33333
2022-08-23T15:22:04.840Z,3366.22222
2022-08-23T15:27:20.529Z,3024
2022-08-23T15:32:23.272Z,2744
2022-08-23T15:37:24.792Z,2408
2022-08-23T15:42:26.334Z,2313.23077
2022-08-23T15:47:28.142Z,2313.23077
2022-08-23T15:52:29.849Z,1484
2022-08-23T15:57:31.941Z,1446.43902
2022-08-23T16:02:45.815Z,1044
2022-08-23T16:08:06.758Z,1176
2022-08-23T16:13:08.179Z,1201.14286
2022-08-23T16:18:10.105Z,215.36564
2022-08-23T16:23:11.524Z,175.57895
2022-08-23T16:28:13.319Z,268.21053
2022-08-23T16:33:15.681Z,252
2022-08-23T16:38:17.470Z,349.26316
2022-08-23T16:43:19.234Z,498.95495
2022-08-23T16:48:21.038Z,432.88889
2022-08-23T16:53:22.648Z,258.28571
2022-08-23T16:58:24.074Z,230.51163
2022-08-23T17:03:27.239Z,282.46154
2022-08-23T17:08:28.978Z,208.37768
2022-08-23T17:13:30.651Z,269.92593
2022-08-23T17:18:32.552Z,440.77419
2022-08-23T17:23:34.249Z,668.70588
2022-08-23T17:28:42.372Z,849.88235
2022-08-23T17:33:44.400Z,560
2022-08-23T17:38:46.118Z,695.21951
2022-08-23T17:43:47.986Z,494
2022-08-23T17:48:49.976Z,380.87943
2022-08-23T17:53:51.860Z,344
2022-08-23T17:58:53.621Z,566.22222
2022-08-23T18:03:56.779Z,403.70149
2022-08-23T18:08:58.805Z,417.84615
2022-08-23T18:14:00.710Z,374.76923
2022-08-23T18:19:02.528Z,407.15789
2022-08-23T18:24:04.469Z,417.84615
2022-08-23T18:29:06.262Z,400.2963
2022-08-23T18:34:08.352Z,644
2022-08-23T18:39:10.230Z,553.90099
2022-08-23T18:44:12.032Z,498.95495
2022-08-23T18:49:13.573Z,479.65217
2022-08-23T18:54:15.360Z,498.95495
2022-08-23T18:59:17.237Z,542.05825
2022-08-23T19:04:19.513Z,489.13274
2022-08-23T19:09:21.241Z,542.05825
2022-08-23T19:14:22.961Z,542.05825
2022-08-23T19:19:24.653Z,579.05155
2022-08-23T19:24:26.086Z,579.05155
2022-08-23T19:29:27.569Z,599.31915
2022-08-23T19:34:29.520Z,733.74359
2022-08-23T19:39:30.965Z,723.74684
2022-08-23T19:44:32.416Z,714
2022-08-23T19:49:34.140Z,714
2022-08-23T19:54:35.910Z,714
2022-08-23T19:59:37.529Z,723.74684
2022-08-23T20:04:39.610Z,686.16867
2022-08-23T20:09:41.128Z,754.52632
2022-08-23T20:14:42.820Z,686.16867
2022-08-23T20:19:44.590Z,509.13761
2022-08-23T20:24:51.906Z,457.33333
2022-08-23T20:29:54.215Z,566.22222
2022-08-23T20:34:56.505Z,479.65217
2022-08-23T20:39:59.094Z,514.37037
2022-08-23T20:45:00.907Z,509.13761
2022-08-23T20:50:02.837Z,536.30769
2022-08-23T20:55:04.558Z,514.37037
2022-08-23T21:00:12.638Z,519.70093
2022-08-23T21:05:14.381Z,432.88889
2022-08-23T21:10:15.828Z,436.8
2022-08-23T21:15:17.401Z,514.37037
2022-08-23T21:20:19.106Z,509.13761
2022-08-23T21:25:20.621Z,525.13208
2022-08-23T21:30:22.175Z,553.90099
2022-08-23T21:35:24.069Z,509.13761
2022-08-23T21:40:26.113Z,484.35088
2022-08-23T21:45:27.903Z,530.66667
2022-08-23T21:50:29.788Z,530.66667
2022-08-23T21:55:35.988Z,396.94118
2022-08-23T22:00:39.384Z,321.91411
2022-08-23T22:05:41.495Z,300.06936
2022-08-23T22:10:44.847Z,263.17098
2022-08-23T22:15:58.680Z,230.51163
2022-08-23T22:21:00.792Z,222.73303
2022-08-23T22:26:02.546Z,206.12766
2022-08-23T22:31:04.424Z,201.74059
2022-08-23T22:36:06.623Z,192.3871
2022-08-23T22:41:08.306Z,189.41833
2022-08-23T22:46:10.282Z,187.47826
2022-08-23T22:51:12.450Z,189.41833
2022-08-23T22:56:14.171Z,185.56863
2022-08-23T23:01:16.067Z,182.75969
2022-08-23T23:06:20.026Z,172.99628
2022-08-23T23:11:21.693Z,170.47059
2022-08-23T23:16:23.269Z,172.99628
2022-08-23T23:21:25.085Z,174.71161
2022-08-23T23:26:26.745Z,176.45283
2022-08-23T23:31:28.201Z,178.22053
2022-08-23T23:36:30.172Z,171.30627
2022-08-23T23:41:31.898Z,168.81752
2022-08-23T23:46:33.739Z,170.47059
2022-08-23T23:51:35.969Z,175.57895
2022-08-23T23:56:37.945Z,170.47059
